createdAt,value
2018-12-31T00:02:19.757Z,97931.47
2018-12-31T00:04:50.261Z,97926.66
2018-12-31T00:07:20.819Z,97929.84
2018-12-31T00:09:51.365Z,97916.48
2018-12-31T00:12:21.870Z,97925.03
2018-12-31T00:14:52.297Z,97930.87
2018-12-31T00:17:22.817Z,97923.75
2018-12-31T00:19:53.257Z,97929.62
2018-12-31T00:22:24.484Z,97928.84
2018-12-31T00:24:54.920Z,97932.92
2018-12-31T00:27:25.339Z,97925.28
2018-12-31T00:29:55.774Z,97939.16
2018-12-31T00:32:26.210Z,97943.66
2018-12-31T00:34:56.667Z,97946.75
2018-12-31T00:37:27.017Z,97938.29
2018-12-31T00:39:57.441Z,97941.48
2018-12-31T00:42:27.832Z,97932.64
2018-12-31T00:44:58.266Z,97944.41
2018-12-31T00:47:28.677Z,97953.89
2018-12-31T00:49:59.101Z,97949.36
2018-12-31T00:52:29.524Z,97928.39
2018-12-31T00:54:59.940Z,97945.05
2018-12-31T00:57:30.324Z,97959.81
2018-12-31T01:00:00.680Z,97955.79
2018-12-31T01:02:31.106Z,97936.59
2018-12-31T01:05:01.563Z,97958.53
2018-12-31T01:07:32.003Z,97954.59
2018-12-31T01:10:02.405Z,97952.78
2018-12-31T01:12:32.836Z,97946.16
2018-12-31T01:15:03.351Z,97947.97
2018-12-31T01:17:33.767Z,97952.55
2018-12-31T01:20:04.207Z,97948.63
2018-12-31T01:22:34.631Z,97951.77
2018-12-31T01:25:05.048Z,97949.55
2018-12-31T01:27:35.409Z,97943.81
2018-12-31T01:30:06.103Z,97955.39
2018-12-31T01:32:36.542Z,97958.86
2018-12-31T01:35:06.944Z,97948.30
2018-12-31T01:37:37.337Z,97961.81
2018-12-31T01:40:07.772Z,97953.76
2018-12-31T01:42:38.087Z,97944.37
2018-12-31T01:45:08.536Z,97958.72
2018-12-31T01:47:38.893Z,97951.13
2018-12-31T01:50:09.337Z,97943.49
2018-12-31T01:52:39.681Z,97944.52
2018-12-31T01:55:10.048Z,97956.59
2018-12-31T01:57:40.452Z,97950.84
2018-12-31T02:00:10.804Z,97945.53
2018-12-31T02:02:41.238Z,97950.91
2018-12-31T02:05:11.675Z,97954.46
2018-12-31T02:07:42.110Z,97950.91
2018-12-31T02:10:12.530Z,97958.58
2018-12-31T02:12:42.957Z,97958.58
2018-12-31T02:15:13.371Z,97957.23
2018-12-31T02:17:43.807Z,97954.73
2018-12-31T02:20:15.199Z,97958.34
2018-12-31T02:22:45.585Z,97952.05
2018-12-31T02:25:15.977Z,97957.87
2018-12-31T02:27:46.370Z,97951.81
2018-12-31T02:30:16.800Z,97953.07
2018-12-31T02:32:47.293Z,97955.75
2018-12-31T02:35:17.739Z,97957.56
2018-12-31T02:37:48.107Z,97960.80
2018-12-31T02:40:18.525Z,97954.97
2018-12-31T02:42:48.888Z,97954.50
2018-12-31T02:45:19.251Z,97957.65
2018-12-31T02:47:49.641Z,97961.03
2018-12-31T02:50:20.069Z,97971.20
2018-12-31T02:52:50.472Z,97957.80
2018-12-31T02:55:20.834Z,97964.41
2018-12-31T02:57:51.252Z,97959.51
2018-12-31T03:00:21.738Z,97956.36
2018-12-31T03:02:52.182Z,97957.70
2018-12-31T03:05:22.564Z,97966.63
2018-12-31T03:07:52.968Z,97957.14
2018-12-31T03:10:23.364Z,97940.58
2018-12-31T03:12:53.777Z,97952.24
2018-12-31T03:15:24.074Z,97954.46
2018-12-31T03:17:54.403Z,97952.33
2018-12-31T03:20:24.751Z,97942.94
2018-12-31T03:22:55.070Z,97945.72
2018-12-31T03:25:25.399Z,97946.59
2018-12-31T03:27:55.753Z,97941.69
2018-12-31T03:30:26.147Z,97929.23
2018-12-31T03:32:56.541Z,97944.00
2018-12-31T03:35:26.936Z,97932.86
2018-12-31T03:37:57.340Z,97931.92
2018-12-31T03:40:27.679Z,97934.98
2018-12-31T03:42:58.066Z,97933.27
2018-12-31T03:45:28.442Z,97934.61
2018-12-31T03:47:58.830Z,97944.46
2018-12-31T03:50:29.165Z,97935.95
2018-12-31T03:52:59.550Z,97926.05
2018-12-31T03:55:29.922Z,97947.52
2018-12-31T03:58:00.361Z,97953.39
2018-12-31T04:00:30.736Z,97942.66
2018-12-31T04:03:01.287Z,97957.80
2018-12-31T04:05:31.680Z,97954.73
2018-12-31T04:08:01.986Z,97954.23
2018-12-31T04:10:32.396Z,97946.68
2018-12-31T04:13:03.033Z,97958.75
2018-12-31T04:15:33.453Z,97952.89
2018-12-31T04:18:03.744Z,97952.42
2018-12-31T04:20:34.049Z,97957.80
2018-12-31T04:23:04.452Z,97979.26
2018-12-31T04:25:34.883Z,97971.67
2018-12-31T04:28:05.235Z,97958.25
2018-12-31T04:30:35.563Z,97973.89
2018-12-31T04:33:05.945Z,97966.30
2018-12-31T04:35:36.882Z,97985.97
2018-12-31T04:38:07.262Z,97986.44
2018-12-31T04:40:37.594Z,97971.67
2018-12-31T04:43:08.022Z,97984.62
2018-12-31T04:45:38.397Z,97985.97
2018-12-31T04:48:08.743Z,97980.59
2018-12-31T04:50:39.134Z,97986.94
2018-12-31T04:53:09.554Z,97983.75
2018-12-31T04:55:44.332Z,98001.19
2018-12-31T04:58:12.097Z,98003.03
2018-12-31T05:00:42.421Z,98011.08
2018-12-31T05:03:12.858Z,98013.77
2018-12-31T05:05:43.634Z,98018.63
2018-12-31T05:08:13.962Z,98010.58
2018-12-31T05:10:44.386Z,98017.79
2018-12-31T05:13:15.072Z,98022.66
2018-12-31T05:15:45.469Z,98016.45
2018-12-31T05:18:15.857Z,98015.58
2018-12-31T05:20:46.592Z,98024.00
2018-12-31T05:23:16.982Z,98019.98
2018-12-31T05:25:47.340Z,98022.19
2018-12-31T05:28:17.749Z,98025.34
2018-12-31T05:30:48.259Z,98029.37
2018-12-31T05:33:18.707Z,98030.70
2018-12-31T05:35:49.167Z,98029.86
2018-12-31T05:38:19.522Z,98031.20
2018-12-31T05:40:49.956Z,98053.52
2018-12-31T05:43:20.337Z,98061.57
2018-12-31T05:45:50.764Z,98062.45
2018-12-31T05:48:21.159Z,98058.88
2018-12-31T05:50:51.599Z,98064.25
2018-12-31T05:53:21.933Z,98063.78
2018-12-31T05:55:52.318Z,98059.38
2018-12-31T05:58:22.737Z,98058.51
2018-12-31T06:00:53.116Z,98069.70
2018-12-31T06:03:23.542Z,98063.46
2018-12-31T06:05:53.944Z,98074.14
2018-12-31T06:08:24.284Z,98079.02
2018-12-31T06:10:54.732Z,98069.62
2018-12-31T06:13:25.151Z,98071.84
2018-12-31T06:15:55.544Z,98087.56
2018-12-31T06:18:25.871Z,98084.38
2018-12-31T06:20:56.243Z,98084.80
2018-12-31T06:23:26.739Z,98095.52
2018-12-31T06:25:57.129Z,98091.00
2018-12-31T06:28:27.525Z,98104.36
2018-12-31T06:30:57.852Z,98106.55
2018-12-31T06:33:28.174Z,98101.13
2018-12-31T06:35:58.539Z,98109.64
2018-12-31T06:38:28.922Z,98107.75
2018-12-31T06:40:59.264Z,98114.05
2018-12-31T06:43:29.713Z,98118.95
2018-12-31T06:46:00.194Z,98109.19
2018-12-31T06:48:30.502Z,98111.37
2018-12-31T06:51:00.982Z,98115.34
2018-12-31T06:53:31.373Z,98117.53
2018-12-31T06:56:01.758Z,98125.11
2018-12-31T06:58:32.079Z,98131.36
2018-12-31T07:01:02.377Z,98130.02
2018-12-31T07:03:33.767Z,98148.34
2018-12-31T07:06:04.258Z,98127.25
2018-12-31T07:08:34.877Z,98138.86
2018-12-31T07:11:05.465Z,98137.05
2018-12-31T07:13:36.028Z,98141.92
2018-12-31T07:16:06.527Z,98143.67
2018-12-31T07:18:36.886Z,98146.36
2018-12-31T07:21:07.199Z,98142.25
2018-12-31T07:23:37.524Z,98153.40
2018-12-31T07:26:07.987Z,98150.22
2018-12-31T07:28:38.359Z,98147.53
2018-12-31T07:31:08.689Z,98149.75
2018-12-31T07:33:39.049Z,98147.06
2018-12-31T07:36:11.059Z,98148.41
2018-12-31T07:38:41.489Z,98149.28
2018-12-31T07:41:11.912Z,98161.28
2018-12-31T07:43:46.339Z,98167.99
2018-12-31T07:46:19.385Z,98167.44
2018-12-31T07:48:50.126Z,98171.47
2018-12-31T07:51:20.639Z,98158.92
2018-12-31T07:53:51.320Z,98163.33
2018-12-31T07:56:22.372Z,98170.45
2018-12-31T07:58:53.327Z,98167.36
2018-12-31T08:01:36.213Z,98168.64
2018-12-31T08:04:14.090Z,98170.45
2018-12-31T08:06:45.468Z,98158.75
2018-12-31T08:09:17.622Z,98166.80
2018-12-31T08:11:48.169Z,98155.22
2018-12-31T08:14:20.025Z,98147.63
2018-12-31T08:16:51.269Z,98157.91
2018-12-31T08:19:21.774Z,98156.39
2018-12-31T08:21:52.285Z,98164.36
2018-12-31T08:24:23.518Z,98165.23
2018-12-31T08:26:53.915Z,98170.61
2018-12-31T08:29:24.638Z,98170.14
2018-12-31T08:31:55.144Z,98167.92
2018-12-31T08:34:25.536Z,98167.45
2018-12-31T08:36:55.982Z,98174.26
2018-12-31T08:39:26.394Z,98179.63
2018-12-31T08:41:56.827Z,98172.03
2018-12-31T08:44:27.607Z,98174.31
2018-12-31T08:46:58.523Z,98180.55
2018-12-31T08:49:29.240Z,98175.59
2018-12-31T08:52:00.303Z,98179.13
2018-12-31T08:54:30.924Z,98184.12
2018-12-31T08:57:01.528Z,98183.70
2018-12-31T08:59:32.018Z,98184.99
2018-12-31T09:02:02.249Z,98190.36
2018-12-31T09:04:33.133Z,98193.89
2018-12-31T09:07:03.492Z,98180.97
2018-12-31T09:09:40.852Z,98191.30
2018-12-31T09:12:41.986Z,98203.38
2018-12-31T09:15:14.799Z,98202.50
2018-12-31T09:17:45.166Z,98209.20
2018-12-31T09:20:15.512Z,98207.86
2018-12-31T09:22:45.873Z,98199.34
2018-12-31T09:25:16.249Z,98202.45
2018-12-31T09:27:46.682Z,98204.08
2018-12-31T09:30:17.160Z,98201.40
2018-12-31T09:32:47.537Z,98206.39
2018-12-31T09:35:17.914Z,98200.05
2018-12-31T09:37:48.223Z,98186.17
2018-12-31T09:40:18.679Z,98181.76
2018-12-31T09:42:49.086Z,98191.53
2018-12-31T09:45:23.483Z,98198.25
2018-12-31T09:47:54.981Z,98195.09
2018-12-31T09:50:25.343Z,98189.73
2018-12-31T09:52:55.816Z,98180.71
2018-12-31T09:55:26.234Z,98183.10
2018-12-31T09:57:56.694Z,98182.60
2018-12-31T10:00:27.089Z,98190.20
2018-12-31T10:02:57.812Z,98188.85
2018-12-31T10:05:30.837Z,98194.13
2018-12-31T10:08:01.337Z,98182.60
2018-12-31T10:10:31.887Z,98183.48
2018-12-31T10:13:02.376Z,98178.58
2018-12-31T10:15:32.969Z,98170.52
2018-12-31T10:18:04.030Z,98172.61
2018-12-31T10:20:34.488Z,98185.53
2018-12-31T10:23:04.904Z,98180.11
2018-12-31T10:25:35.304Z,98182.30
2018-12-31T10:28:05.605Z,98183.72
2018-12-31T10:30:35.971Z,98185.53
2018-12-31T10:33:06.458Z,98186.87
2018-12-31T10:35:36.986Z,98181.91
2018-12-31T10:38:07.409Z,98180.16
2018-12-31T10:40:37.745Z,98181.50
2018-12-31T10:43:09.143Z,98173.95
2018-12-31T10:45:39.566Z,98173.95
2018-12-31T10:48:10.171Z,98174.33
2018-12-31T10:50:40.557Z,98173.86
2018-12-31T10:53:11.026Z,98166.73
2018-12-31T10:55:41.418Z,98168.48
2018-12-31T10:58:11.746Z,98162.16
2018-12-31T11:00:43.733Z,98158.63
2018-12-31T11:03:14.236Z,98163.12
2018-12-31T11:05:44.584Z,98152.38
2018-12-31T11:08:14.924Z,98143.91
2018-12-31T11:10:45.309Z,98144.32
2018-12-31T11:13:15.870Z,98143.91
2018-12-31T11:15:46.272Z,98138.48
2018-12-31T11:18:16.689Z,98141.64
2018-12-31T11:20:47.076Z,98140.30
2018-12-31T11:23:17.514Z,98139.88
2018-12-31T11:25:47.985Z,98128.21
2018-12-31T11:28:17.891Z,98121.03
2018-12-31T11:30:48.134Z,98119.19
2018-12-31T11:33:18.710Z,98123.17
2018-12-31T11:35:49.497Z,98116.92
2018-12-31T11:38:19.745Z,98112.48
2018-12-31T11:40:49.993Z,98112.89
2018-12-31T11:43:20.337Z,98113.27
2018-12-31T11:45:50.857Z,98103.87
2018-12-31T11:48:39.412Z,98095.81
2018-12-31T11:51:13.153Z,98092.20
2018-12-31T11:53:45.309Z,98082.39
2018-12-31T11:56:15.688Z,98084.14
2018-12-31T11:58:45.932Z,98082.80
2018-12-31T12:01:16.352Z,98077.02
2018-12-31T12:03:46.682Z,98069.38
2018-12-31T12:06:17.010Z,98071.09
2018-12-31T12:08:47.420Z,98070.72
2018-12-31T12:11:17.905Z,98072.44
2018-12-31T12:13:48.320Z,98062.58
2018-12-31T12:16:18.715Z,98058.95
2018-12-31T12:18:49.049Z,98070.16
2018-12-31T12:21:19.342Z,98056.65
2018-12-31T12:23:49.704Z,98055.30
2018-12-31T12:26:19.926Z,98056.65
2018-12-31T12:28:50.186Z,98058.40
2018-12-31T12:31:20.972Z,98054.28
2018-12-31T12:33:51.554Z,98058.77
2018-12-31T12:36:22.087Z,98060.59
2018-12-31T12:38:52.345Z,98068.17
2018-12-31T12:41:22.614Z,98077.58
2018-12-31T12:43:54.115Z,98069.05
2018-12-31T12:46:24.394Z,98065.90
2018-12-31T12:48:55.763Z,98076.64
2018-12-31T12:51:26.064Z,98072.61
2018-12-31T12:56:24.949Z,98078.36
2018-12-31T12:58:55.433Z,98078.04
2018-12-31T13:01:26.097Z,98078.45
2018-12-31T13:03:57.423Z,98074.80
2018-12-31T13:06:27.676Z,98074.70
2018-12-31T13:08:57.997Z,98079.23
2018-12-31T13:11:28.271Z,98081.92
2018-12-31T13:13:58.500Z,98083.64
2018-12-31T13:16:28.856Z,98085.45
2018-12-31T13:18:59.220Z,98093.22
2018-12-31T13:21:29.456Z,98093.69
2018-12-31T13:23:59.714Z,98091.00
2018-12-31T13:26:30.046Z,98089.25
2018-12-31T13:29:00.389Z,98092.90
2018-12-31T13:31:30.685Z,98087.99
2018-12-31T13:34:00.963Z,98094.24
2018-12-31T13:36:31.607Z,98095.91
2018-12-31T13:39:01.906Z,98094.94
2018-12-31T13:41:33.290Z,98104.43
2018-12-31T13:44:03.578Z,98100.08
2018-12-31T13:46:33.890Z,98107.20
2018-12-31T13:49:04.224Z,98113.42
2018-12-31T13:51:34.507Z,98119.75
2018-12-31T13:54:04.756Z,98122.35
2018-12-31T13:56:35.044Z,98125.91
2018-12-31T13:59:05.299Z,98136.66
2018-12-31T14:01:35.564Z,98138.00
2018-12-31T14:04:09.447Z,98139.25
2018-12-31T14:06:39.886Z,98136.19
2018-12-31T14:09:10.236Z,98144.25
2018-12-31T14:11:40.751Z,98146.44
2018-12-31T14:14:11.711Z,98150.00
2018-12-31T14:16:42.013Z,98154.44
2018-12-31T14:19:12.255Z,98162.00
2018-12-31T14:21:42.492Z,98162.00
2018-12-31T14:24:12.843Z,98166.03
2018-12-31T14:26:43.527Z,98167.38
2018-12-31T14:29:15.936Z,98174.08
2018-12-31T14:31:46.177Z,98171.40
2018-12-31T14:34:16.441Z,98176.77
2018-12-31T14:36:46.746Z,98179.08
2018-12-31T14:39:17.125Z,98181.35
2018-12-31T14:41:47.363Z,98179.55
2018-12-31T14:44:17.696Z,98180.02
2018-12-31T14:46:48.058Z,98188.95
2018-12-31T14:49:18.370Z,98193.85
2018-12-31T14:51:48.610Z,98193.44
2018-12-31T14:54:18.848Z,98202.84
2018-12-31T14:56:49.170Z,98197.00
2018-12-31T14:59:19.749Z,98201.91
2018-12-31T15:01:50.063Z,98208.16
2018-12-31T15:04:20.283Z,98203.25
2018-12-31T15:06:50.601Z,98213.53
2018-12-31T15:09:21.182Z,98209.50
2018-12-31T15:11:51.550Z,98214.38
2018-12-31T15:14:21.849Z,98215.34
2018-12-31T15:16:52.155Z,98218.91
2018-12-31T15:19:22.417Z,98223.40
2018-12-31T15:21:53.067Z,98219.83
2018-12-31T15:24:23.383Z,98231.45
2018-12-31T15:26:53.701Z,98227.42
2018-12-31T15:29:25.030Z,98229.23
2018-12-31T15:31:55.270Z,98227.52
2018-12-31T15:34:25.543Z,98233.27
2018-12-31T15:36:55.763Z,98230.11
2018-12-31T15:39:26.066Z,98235.48
2018-12-31T15:41:56.435Z,98245.44
2018-12-31T15:44:26.695Z,98241.49
2018-12-31T15:46:57.002Z,98247.70
2018-12-31T15:49:27.240Z,98248.20
2018-12-31T15:51:57.514Z,98250.39
2018-12-31T15:54:27.784Z,98250.89
2018-12-31T15:56:58.301Z,98252.70
2018-12-31T15:59:28.643Z,98256.73
2018-12-31T16:01:58.903Z,98255.39
2018-12-31T16:04:29.110Z,98254.05
2018-12-31T16:06:59.350Z,98255.85
2018-12-31T16:09:29.608Z,98256.73
2018-12-31T16:11:59.831Z,98267.47
2018-12-31T16:14:30.995Z,98263.45
2018-12-31T16:17:01.296Z,98267.01
2018-12-31T16:19:31.912Z,98266.51
2018-12-31T16:22:02.158Z,98270.95
2018-12-31T16:24:33.476Z,98268.73
2018-12-31T16:27:03.782Z,98278.59
2018-12-31T16:29:34.146Z,98275.45
2018-12-31T16:32:04.371Z,98283.92
2018-12-31T16:34:34.710Z,98282.08
2018-12-31T16:37:05.015Z,98285.72
2018-12-31T16:39:35.445Z,98287.86
2018-12-31T16:42:06.174Z,98290.55
2018-12-31T16:44:37.449Z,98293.61
2018-12-31T16:47:07.912Z,98291.42
2018-12-31T16:49:38.279Z,98296.30
2018-12-31T16:52:10.072Z,98293.61
2018-12-31T16:54:40.316Z,98299.48
2018-12-31T16:57:10.646Z,98303.02
2018-12-31T16:59:41.012Z,98303.81
2018-12-31T17:02:11.229Z,98298.94
2018-12-31T17:04:41.855Z,98302.46
2018-12-31T17:07:12.149Z,98304.30
2018-12-31T17:09:42.475Z,98289.12
2018-12-31T17:12:12.694Z,98301.13
2018-12-31T17:14:43.246Z,98298.38
2018-12-31T17:17:13.918Z,98294.36
2018-12-31T17:19:44.188Z,98294.73
2018-12-31T17:22:14.480Z,98297.33
2018-12-31T17:24:44.750Z,98313.41
2018-12-31T17:27:14.982Z,98312.77
2018-12-31T17:29:45.238Z,98307.34
2018-12-31T17:32:15.475Z,98307.48
2018-12-31T17:34:46.058Z,98309.29
2018-12-31T17:37:16.367Z,98308.33
2018-12-31T17:39:48.142Z,98317.67
2018-12-31T17:42:18.467Z,98318.61
2018-12-31T17:44:48.804Z,98315.92
2018-12-31T17:47:21.262Z,98320.36
2018-12-31T17:49:51.550Z,98321.20
2018-12-31T17:52:21.794Z,98325.23
2018-12-31T17:54:52.039Z,98321.20
2018-12-31T17:57:22.281Z,98335.19
2018-12-31T17:59:52.517Z,98330.72
2018-12-31T18:02:23.806Z,98329.08
2018-12-31T18:04:54.165Z,98329.38
2018-12-31T18:07:24.388Z,98334.20
2018-12-31T18:09:55.062Z,98336.89
2018-12-31T18:12:25.272Z,98334.62
2018-12-31T18:14:55.789Z,98333.66
2018-12-31T18:17:26.019Z,98339.44
2018-12-31T18:19:56.289Z,98338.48
2018-12-31T18:22:26.536Z,98339.83
2018-12-31T18:24:57.124Z,98340.70
2018-12-31T18:27:27.373Z,98341.16
2018-12-31T18:29:57.589Z,98341.58
2018-12-31T18:32:27.839Z,98346.95
2018-12-31T18:34:58.168Z,98350.52
2018-12-31T18:37:28.710Z,98346.41
2018-12-31T18:39:58.959Z,98364.80
2018-12-31T18:42:29.191Z,98362.98
2018-12-31T18:44:59.416Z,98367.89
2018-12-31T18:47:29.637Z,98364.25
2018-12-31T18:50:00.330Z,98369.23
2018-12-31T18:52:30.616Z,98377.84
2018-12-31T18:55:00.959Z,98383.59
2018-12-31T18:57:31.173Z,98384.94
2018-12-31T19:00:01.439Z,98383.13
2018-12-31T19:02:31.671Z,98384.01
2018-12-31T19:05:01.964Z,98388.97
2018-12-31T19:07:32.291Z,98389.92
2018-12-31T19:10:02.583Z,98387.24
2018-12-31T19:12:33.194Z,98395.69
2018-12-31T19:15:03.423Z,98393.87
2018-12-31T19:17:33.652Z,98393.41
2018-12-31T19:20:04.015Z,98397.44
2018-12-31T19:22:34.361Z,98397.98
2018-12-31T19:25:04.586Z,98398.78
2018-12-31T19:27:34.831Z,98400.59
2018-12-31T19:30:05.108Z,98408.66
2018-12-31T19:32:35.344Z,98405.58
2018-12-31T19:35:05.970Z,98408.73
2018-12-31T19:37:36.251Z,98407.85
2018-12-31T19:40:06.614Z,98404.29
2018-12-31T19:42:36.864Z,98403.44
2018-12-31T19:45:07.083Z,98404.70
2018-12-31T19:47:37.691Z,98406.05
2018-12-31T19:50:07.919Z,98415.91
2018-12-31T19:52:38.306Z,98410.54
2018-12-31T19:55:08.530Z,98410.08
2018-12-31T19:57:38.769Z,98407.39
2018-12-31T20:00:09.489Z,98412.84
2018-12-31T20:02:39.731Z,98405.25
2018-12-31T20:05:09.975Z,98409.28
2018-12-31T20:07:40.269Z,98405.25
2018-12-31T20:10:10.479Z,98404.78
2018-12-31T20:12:40.722Z,98411.50
2018-12-31T20:15:10.945Z,98407.94
2018-12-31T20:17:41.170Z,98413.39
2018-12-31T20:20:11.392Z,98407.52
2018-12-31T20:22:41.727Z,98412.43
2018-12-31T20:25:11.979Z,98406.25
2018-12-31T20:27:42.198Z,98414.31
2018-12-31T20:30:12.470Z,98425.14
2018-12-31T20:32:42.689Z,98418.80
2018-12-31T20:35:13.015Z,98430.89
2018-12-31T20:37:43.304Z,98430.05
2018-12-31T20:40:13.589Z,98429.17
2018-12-31T20:42:43.827Z,98430.52
2018-12-31T20:45:14.072Z,98426.95
2018-12-31T20:47:44.407Z,98431.85
2018-12-31T20:50:14.635Z,98429.17
2018-12-31T20:52:44.874Z,98425.69
2018-12-31T20:55:15.159Z,98429.71
2018-12-31T20:57:45.407Z,98430.09
2018-12-31T21:00:15.623Z,98427.83
2018-12-31T21:02:45.869Z,98430.05
2018-12-31T21:05:16.091Z,98429.63
2018-12-31T21:07:46.379Z,98424.72
2018-12-31T21:10:16.655Z,98426.02
2018-12-31T21:12:47.316Z,98436.27
2018-12-31T21:15:17.574Z,98434.55
2018-12-31T21:17:47.783Z,98439.50
2018-12-31T21:20:18.042Z,98439.03
2018-12-31T21:22:49.336Z,98435.88
2018-12-31T21:25:19.592Z,98442.59
2018-12-31T21:27:49.846Z,98450.66
2018-12-31T21:30:20.400Z,98454.69
2018-12-31T21:32:50.619Z,98449.78
2018-12-31T21:35:20.875Z,98456.95
2018-12-31T21:37:51.098Z,98452.38
2018-12-31T21:40:21.466Z,98453.80
2018-12-31T21:42:51.688Z,98454.22
2018-12-31T21:45:21.949Z,98453.80
2018-12-31T21:47:52.265Z,98452.55
2018-12-31T21:50:22.520Z,98454.34
2018-12-31T21:52:52.756Z,98449.05
2018-12-31T21:55:23.039Z,98448.09
2018-12-31T21:57:53.354Z,98449.05
2018-12-31T22:00:23.878Z,98457.11
2018-12-31T22:02:57.135Z,98457.66
2018-12-31T22:05:26.128Z,98461.69
2018-12-31T22:07:56.427Z,98458.12
2018-12-31T22:10:26.743Z,98447.00
2018-12-31T22:12:56.987Z,98463.11
2018-12-31T22:15:27.232Z,98460.00
2018-12-31T22:17:57.579Z,98463.16
2018-12-31T22:20:27.799Z,98457.86
2018-12-31T22:22:58.049Z,98468.14
2018-12-31T22:25:28.263Z,98468.61
2018-12-31T22:27:58.521Z,98461.50
2018-12-31T22:30:28.765Z,98466.08
2018-12-31T22:32:58.998Z,98467.42
2018-12-31T22:35:29.420Z,98472.38
2018-12-31T22:37:59.655Z,98465.73
2018-12-31T22:40:30.628Z,98474.67
2018-12-31T22:43:00.942Z,98473.38
2018-12-31T22:45:31.182Z,98477.02
2018-12-31T22:48:01.611Z,98478.36
2018-12-31T22:50:31.935Z,98478.91
2018-12-31T22:53:02.210Z,98476.68
2018-12-31T22:55:32.446Z,98480.70
2018-12-31T22:58:02.662Z,98469.71
2018-12-31T23:00:32.956Z,98480.37
2018-12-31T23:03:03.485Z,98475.95
2018-12-31T23:05:36.371Z,98479.56
2018-12-31T23:08:07.768Z,98482.75
2018-12-31T23:10:37.991Z,98482.33
2018-12-31T23:13:08.227Z,98485.09
2018-12-31T23:15:39.883Z,98483.75
2018-12-31T23:18:10.776Z,98488.32
2018-12-31T23:20:41.108Z,98488.32
2018-12-31T23:23:11.505Z,98494.15
2018-12-31T23:25:41.766Z,98490.59
2018-12-31T23:28:12.084Z,98487.90
2018-12-31T23:30:42.443Z,98490.59
2018-12-31T23:33:13.074Z,98485.75
2018-12-31T23:35:43.320Z,98481.88
2018-12-31T23:38:13.751Z,98487.72
2018-12-31T23:40:44.119Z,98482.77
2018-12-31T23:43:14.396Z,98486.30
2018-12-31T23:45:44.760Z,98482.34
2018-12-31T23:48:15.010Z,98485.11
2018-12-31T23:50:45.295Z,98488.33
2018-12-31T23:53:15.546Z,98483.58
2018-12-31T23:55:45.774Z,98484.58
2018-12-31T23:58:16.024Z,98486.92
